sensor_id;sensor_type;location;lat;lon;timestamp;pressure;altitude;pressure_sealevel;temperature;humidity
59106;BME280;44891;50.204;8.132;2023-01-30T00:03:59;98688.94;;;0.53;89.26
59106;BME280;44891;50.204;8.132;2023-01-30T00:08:01;98682.00;;;0.53;89.63
59106;BME280;44891;50.204;8.132;2023-01-30T00:12:04;98656.63;;;0.57;90.37
59106;BME280;44891;50.204;8.132;2023-01-30T00:16:06;98630.44;;;0.52;90.98
59106;BME280;44891;50.204;8.132;2023-01-30T00:20:10;98626.09;;;0.61;91.34
59106;BME280;44891;50.204;8.132;2023-01-30T00:24:12;98602.84;;;0.52;91.70
59106;BME280;44891;50.204;8.132;2023-01-30T00:28:14;98613.81;;;0.63;91.30
59106;BME280;44891;50.204;8.132;2023-01-30T00:32:16;98633.19;;;0.59;91.28
59106;BME280;44891;50.204;8.132;2023-01-30T00:36:19;98622.69;;;0.68;91.08
59106;BME280;44891;50.204;8.132;2023-01-30T00:40:21;98614.44;;;0.73;91.11
59106;BME280;44891;50.204;8.132;2023-01-30T00:44:23;98610.22;;;0.72;91.50
59106;BME280;44891;50.204;8.132;2023-01-30T00:48:43;98609.59;;;0.70;91.96
59106;BME280;44891;50.204;8.132;2023-01-30T00:52:46;98606.34;;;0.76;91.66
59106;BME280;44891;50.204;8.132;2023-01-30T00:56:48;98615.91;;;0.67;92.34
59106;BME280;44891;50.204;8.132;2023-01-30T01:00:50;98608.47;;;0.64;92.93
59106;BME280;44891;50.204;8.132;2023-01-30T01:04:52;98597.47;;;0.70;92.46
59106;BME280;44891;50.204;8.132;2023-01-30T01:08:55;98581.31;;;0.76;92.25
59106;BME280;44891;50.204;8.132;2023-01-30T01:12:57;98569.66;;;0.80;92.29
59106;BME280;44891;50.204;8.132;2023-01-30T01:16:59;98573.81;;;0.90;92.62
59106;BME280;44891;50.204;8.132;2023-01-30T01:21:01;98574.31;;;0.85;92.52
59106;BME280;44891;50.204;8.132;2023-01-30T01:25:05;98568.84;;;0.88;93.11
59106;BME280;44891;50.204;8.132;2023-01-30T01:29:08;98571.06;;;0.99;92.78
59106;BME280;44891;50.204;8.132;2023-01-30T01:33:11;98561.03;;;0.96;92.90
59106;BME280;44891;50.204;8.132;2023-01-30T01:37:13;98553.09;;;1.06;92.33
59106;BME280;44891;50.204;8.132;2023-01-30T01:41:18;98535.00;;;0.98;92.91
59106;BME280;44891;50.204;8.132;2023-01-30T01:45:20;98527.38;;;1.04;93.26
59106;BME280;44891;50.204;8.132;2023-01-30T01:49:24;98530.09;;;1.11;93.15
59106;BME280;44891;50.204;8.132;2023-01-30T01:53:29;98528.97;;;1.14;93.20
59106;BME280;44891;50.204;8.132;2023-01-30T01:57:35;98518.25;;;1.17;92.84
59106;BME280;44891;50.204;8.132;2023-01-30T02:01:40;98483.84;;;1.16;93.38
59106;BME280;44891;50.204;8.132;2023-01-30T02:05:42;98479.47;;;1.17;93.36
59106;BME280;44891;50.204;8.132;2023-01-30T02:09:46;98489.31;;;1.21;93.31
59106;BME280;44891;50.204;8.132;2023-01-30T02:13:50;98500.47;;;1.22;93.27
59106;BME280;44891;50.204;8.132;2023-01-30T02:17:55;98508.72;;;1.17;93.63
59106;BME280;44891;50.204;8.132;2023-01-30T02:22:01;98501.31;;;1.14;94.29
59106;BME280;44891;50.204;8.132;2023-01-30T02:34:58;98487.81;;;1.27;93.56
59106;BME280;44891;50.204;8.132;2023-01-30T02:39:07;98482.28;;;1.30;93.54
59106;BME280;44891;50.204;8.132;2023-01-30T02:43:12;98494.38;;;1.38;93.69
59106;BME280;44891;50.204;8.132;2023-01-30T02:47:18;98494.72;;;1.34;93.25
59106;BME280;44891;50.204;8.132;2023-01-30T02:51:26;98499.53;;;1.38;93.20
59106;BME280;44891;50.204;8.132;2023-01-30T02:55:30;98500.53;;;1.36;93.66
59106;BME280;44891;50.204;8.132;2023-01-30T02:59:33;98504.22;;;1.42;93.24
59106;BME280;44891;50.204;8.132;2023-01-30T03:03:42;98514.84;;;1.47;93.18
59106;BME280;44891;50.204;8.132;2023-01-30T03:07:55;98495.06;;;1.54;93.26
59106;BME280;44891;50.204;8.132;2023-01-30T03:12:02;98472.78;;;1.45;93.47
59106;BME280;44891;50.204;8.132;2023-01-30T03:16:10;98472.75;;;1.53;93.27
59106;BME280;44891;50.204;8.132;2023-01-30T03:20:14;98453.03;;;1.52;93.90
59106;BME280;44891;50.204;8.132;2023-01-30T03:24:18;98463.03;;;1.55;93.85
59106;BME280;44891;50.204;8.132;2023-01-30T03:28:20;98451.06;;;1.54;93.91
59106;BME280;44891;50.204;8.132;2023-01-30T03:32:23;98435.97;;;1.58;93.68
59106;BME280;44891;50.204;8.132;2023-01-30T03:36:25;98430.06;;;1.49;94.21
59106;BME280;44891;50.204;8.132;2023-01-30T03:40:31;98427.78;;;1.54;94.37
59106;BME280;44891;50.204;8.132;2023-01-30T03:44:33;98432.47;;;1.51;95.12
59106;BME280;44891;50.204;8.132;2023-01-30T03:48:35;98424.56;;;1.52;95.13
59106;BME280;44891;50.204;8.132;2023-01-30T03:52:37;98410.91;;;1.58;95.52
59106;BME280;44891;50.204;8.132;2023-01-30T03:56:45;98410.00;;;1.51;95.40
59106;BME280;44891;50.204;8.132;2023-01-30T04:00:47;98387.69;;;1.50;96.35
59106;BME280;44891;50.204;8.132;2023-01-30T04:04:49;98378.22;;;1.57;96.42
59106;BME280;44891;50.204;8.132;2023-01-30T04:08:51;98380.03;;;1.57;97.10
59106;BME280;44891;50.204;8.132;2023-01-30T04:13:06;98378.31;;;1.64;96.78
59106;BME280;44891;50.204;8.132;2023-01-30T04:17:08;98366.84;;;1.67;96.42
59106;BME280;44891;50.204;8.132;2023-01-30T04:21:35;98362.47;;;1.67;96.70
59106;BME280;44891;50.204;8.132;2023-01-30T04:25:37;98354.31;;;1.70;96.97
59106;BME280;44891;50.204;8.132;2023-01-30T04:29:42;98346.03;;;1.75;96.60
59106;BME280;44891;50.204;8.132;2023-01-30T04:33:45;98328.09;;;1.73;96.79
59106;BME280;44891;50.204;8.132;2023-01-30T04:37:47;98332.38;;;1.81;96.36
59106;BME280;44891;50.204;8.132;2023-01-30T04:41:53;98338.88;;;1.77;96.53
59106;BME280;44891;50.204;8.132;2023-01-30T04:45:56;98338.88;;;1.77;96.51
59106;BME280;44891;50.204;8.132;2023-01-30T04:49:58;98342.28;;;1.77;96.58
59106;BME280;44891;50.204;8.132;2023-01-30T04:54:00;98343.72;;;1.80;96.79
59106;BME280;44891;50.204;8.132;2023-01-30T04:58:04;98334.16;;;1.80;96.11
59106;BME280;44891;50.204;8.132;2023-01-30T05:02:07;98339.06;;;1.90;95.94
59106;BME280;44891;50.204;8.132;2023-01-30T05:06:09;98342.44;;;1.90;96.25
59106;BME280;44891;50.204;8.132;2023-01-30T05:10:11;98339.72;;;1.92;95.85
59106;BME280;44891;50.204;8.132;2023-01-30T05:14:13;98337.72;;;1.94;96.06
59106;BME280;44891;50.204;8.132;2023-01-30T05:18:16;98331.38;;;1.97;95.84
59106;BME280;44891;50.204;8.132;2023-01-30T05:22:18;98332.03;;;1.99;96.24
59106;BME280;44891;50.204;8.132;2023-01-30T05:26:20;98323.06;;;2.01;96.87
59106;BME280;44891;50.204;8.132;2023-01-30T05:30:22;98318.88;;;2.00;97.62
59106;BME280;44891;50.204;8.132;2023-01-30T05:34:26;98305.13;;;2.00;98.35
59106;BME280;44891;50.204;8.132;2023-01-30T05:38:28;98297.44;;;2.06;98.44
59106;BME280;44891;50.204;8.132;2023-01-30T05:42:30;98288.31;;;2.10;98.95
59106;BME280;44891;50.204;8.132;2023-01-30T05:46:31;98286.28;;;2.06;99.54
59106;BME280;44891;50.204;8.132;2023-01-30T05:50:35;98267.88;;;2.01;100.00
59106;BME280;44891;50.204;8.132;2023-01-30T05:54:36;98274.06;;;2.00;100.00
59106;BME280;44891;50.204;8.132;2023-01-30T05:58:38;98281.44;;;2.03;100.00
59106;BME280;44891;50.204;8.132;2023-01-30T06:02:40;98265.28;;;2.01;100.00
59106;BME280;44891;50.204;8.132;2023-01-30T06:06:43;98268.31;;;2.04;100.00
59106;BME280;44891;50.204;8.132;2023-01-30T06:10:45;98266.91;;;2.02;100.00
59106;BME280;44891;50.204;8.132;2023-01-30T06:14:47;98270.81;;;2.12;100.00
59106;BME280;44891;50.204;8.132;2023-01-30T06:18:49;98269.56;;;2.08;100.00
59106;BME280;44891;50.204;8.132;2023-01-30T06:22:53;98270.38;;;2.09;99.61
59106;BME280;44891;50.204;8.132;2023-01-30T06:26:55;98273.41;;;2.12;99.61
59106;BME280;44891;50.204;8.132;2023-01-30T06:30:56;98275.63;;;2.15;99.76
59106;BME280;44891;50.204;8.132;2023-01-30T06:34:58;98269.28;;;2.18;99.77
59106;BME280;44891;50.204;8.132;2023-01-30T06:39:01;98274.69;;;2.23;100.00
59106;BME280;44891;50.204;8.132;2023-01-30T06:43:03;98285.88;;;2.24;99.86
59106;BME280;44891;50.204;8.132;2023-01-30T06:47:05;98288.09;;;2.27;99.76
59106;BME280;44891;50.204;8.132;2023-01-30T06:51:07;98284.97;;;2.31;100.00
59106;BME280;44891;50.204;8.132;2023-01-30T06:55:11;98274.16;;;2.28;100.00
59106;BME280;44891;50.204;8.132;2023-01-30T06:59:13;98287.72;;;2.30;100.00
59106;BME280;44891;50.204;8.132;2023-01-30T07:03:15;98309.72;;;2.34;100.00
59106;BME280;44891;50.204;8.132;2023-01-30T07:07:18;98314.91;;;2.34;100.00
59106;BME280;44891;50.204;8.132;2023-01-30T07:11:21;98329.84;;;2.32;100.00
59106;BME280;44891;50.204;8.132;2023-01-30T07:15:22;98326.94;;;2.41;100.00
59106;BME280;44891;50.204;8.132;2023-01-30T07:19:24;98306.19;;;2.41;100.00
59106;BME280;44891;50.204;8.132;2023-01-30T07:23:26;98317.00;;;2.45;100.00
59106;BME280;44891;50.204;8.132;2023-01-30T07:27:29;98314.03;;;2.48;100.00
59106;BME280;44891;50.204;8.132;2023-01-30T07:31:31;98307.88;;;2.49;100.00
59106;BME280;44891;50.204;8.132;2023-01-30T07:35:33;98332.78;;;2.50;100.00
59106;BME280;44891;50.204;8.132;2023-01-30T07:39:36;98340.41;;;2.52;100.00
59106;BME280;44891;50.204;8.132;2023-01-30T07:43:39;98320.47;;;2.52;100.00
59106;BME280;44891;50.204;8.132;2023-01-30T07:47:41;98325.81;;;2.51;100.00
59106;BME280;44891;50.204;8.132;2023-01-30T07:51:42;98313.75;;;2.58;100.00
59106;BME280;44891;50.204;8.132;2023-01-30T07:55:44;98285.78;;;2.32;100.00
59106;BME280;44891;50.204;8.132;2023-01-30T07:59:48;98309.38;;;2.58;100.00
59106;BME280;44891;50.204;8.132;2023-01-30T08:03:49;98294.78;;;2.57;100.00
59106;BME280;44891;50.204;8.132;2023-01-30T08:07:51;98287.25;;;2.62;100.00
59106;BME280;44891;50.204;8.132;2023-01-30T08:11:55;98293.97;;;2.57;100.00
59106;BME280;44891;50.204;8.132;2023-01-30T08:16:00;98284.66;;;2.62;100.00
59106;BME280;44891;50.204;8.132;2023-01-30T08:20:03;98275.53;;;2.66;100.00
59106;BME280;44891;50.204;8.132;2023-01-30T08:24:05;98297.69;;;2.69;100.00
59106;BME280;44891;50.204;8.132;2023-01-30T08:28:07;98311.72;;;2.75;100.00
59106;BME280;44891;50.204;8.132;2023-01-30T08:32:10;98294.97;;;2.77;100.00
59106;BME280;44891;50.204;8.132;2023-01-30T08:36:12;98293.00;;;2.79;100.00
59106;BME280;44891;50.204;8.132;2023-01-30T08:40:14;98306.59;;;2.81;100.00
59106;BME280;44891;50.204;8.132;2023-01-30T08:44:16;98275.47;;;2.81;100.00
59106;BME280;44891;50.204;8.132;2023-01-30T08:48:19;98286.50;;;2.90;100.00
59106;BME280;44891;50.204;8.132;2023-01-30T08:52:21;98292.69;;;2.89;100.00
59106;BME280;44891;50.204;8.132;2023-01-30T08:56:23;98308.88;;;2.91;100.00
59106;BME280;44891;50.204;8.132;2023-01-30T09:00:26;98279.47;;;2.84;100.00
59106;BME280;44891;50.204;8.132;2023-01-30T09:04:29;98271.13;;;2.88;100.00
59106;BME280;44891;50.204;8.132;2023-01-30T09:08:31;98272.19;;;2.94;100.00
59106;BME280;44891;50.204;8.132;2023-01-30T09:12:33;98284.41;;;3.00;100.00
59106;BME280;44891;50.204;8.132;2023-01-30T09:16:35;98276.00;;;2.98;100.00
59106;BME280;44891;50.204;8.132;2023-01-30T09:20:38;98271.00;;;2.96;100.00
59106;BME280;44891;50.204;8.132;2023-01-30T09:24:40;98274.81;;;3.00;100.00
59106;BME280;44891;50.204;8.132;2023-01-30T09:28:41;98260.72;;;3.10;100.00
59106;BME280;44891;50.204;8.132;2023-01-30T09:32:43;98263.75;;;3.13;100.00
59106;BME280;44891;50.204;8.132;2023-01-30T09:36:46;98264.00;;;3.18;100.00
59106;BME280;44891;50.204;8.132;2023-01-30T09:40:52;98289.59;;;3.28;100.00
59106;BME280;44891;50.204;8.132;2023-01-30T09:49:16;98293.88;;;3.42;98.81
59106;BME280;44891;50.204;8.132;2023-01-30T09:53:23;98301.72;;;3.49;99.72
59106;BME280;44891;50.204;8.132;2023-01-30T09:57:28;98285.03;;;3.37;100.00
59106;BME280;44891;50.204;8.132;2023-01-30T10:01:31;98279.91;;;3.43;100.00
59106;BME280;44891;50.204;8.132;2023-01-30T10:05:39;98264.56;;;3.48;99.80
59106;BME280;44891;50.204;8.132;2023-01-30T10:09:47;98252.81;;;3.52;100.00
59106;BME280;44891;50.204;8.132;2023-01-30T10:13:59;98262.31;;;3.73;99.87
59106;BME280;44891;50.204;8.132;2023-01-30T10:18:13;98259.59;;;3.95;98.39
59106;BME280;44891;50.204;8.132;2023-01-30T10:22:20;98261.53;;;4.47;95.36
59106;BME280;44891;50.204;8.132;2023-01-30T10:26:27;98274.53;;;4.54;94.34
59106;BME280;44891;50.204;8.132;2023-01-30T10:30:29;98268.09;;;4.23;93.71
59106;BME280;44891;50.204;8.132;2023-01-30T10:34:32;98257.28;;;4.20;95.17
59106;BME280;44891;50.204;8.132;2023-01-30T10:38:36;98253.09;;;4.25;93.30
59106;BME280;44891;50.204;8.132;2023-01-30T10:42:44;98272.88;;;4.26;93.47
59106;BME280;44891;50.204;8.132;2023-01-30T10:46:52;98260.84;;;4.12;94.76
59106;BME280;44891;50.204;8.132;2023-01-30T10:50:59;98263.03;;;4.15;93.61
59106;BME280;44891;50.204;8.132;2023-01-30T10:55:05;98268.34;;;4.55;93.10
59106;BME280;44891;50.204;8.132;2023-01-30T10:59:19;98264.56;;;5.24;86.83
59106;BME280;44891;50.204;8.132;2023-01-30T11:03:24;98263.56;;;5.18;87.17
59106;BME280;44891;50.204;8.132;2023-01-30T11:07:28;98264.59;;;5.10;88.73
59106;BME280;44891;50.204;8.132;2023-01-30T11:11:32;98269.56;;;5.25;87.50
59106;BME280;44891;50.204;8.132;2023-01-30T11:15:39;98265.75;;;5.34;88.31
59106;BME280;44891;50.204;8.132;2023-01-30T11:19:41;98272.59;;;5.15;88.75
59106;BME280;44891;50.204;8.132;2023-01-30T11:23:43;98285.59;;;5.15;88.75
59106;BME280;44891;50.204;8.132;2023-01-30T11:27:50;98277.97;;;5.01;89.08
59106;BME280;44891;50.204;8.132;2023-01-30T11:31:54;98271.97;;;5.07;89.64
59106;BME280;44891;50.204;8.132;2023-01-30T11:36:01;98300.22;;;5.10;88.79
59106;BME280;44891;50.204;8.132;2023-01-30T11:40:06;98285.63;;;5.09;88.32
59106;BME280;44891;50.204;8.132;2023-01-30T11:44:09;98304.81;;;5.08;87.54
59106;BME280;44891;50.204;8.132;2023-01-30T11:48:14;98286.75;;;5.46;84.70
59106;BME280;44891;50.204;8.132;2023-01-30T11:52:19;98282.19;;;5.22;86.99
59106;BME280;44891;50.204;8.132;2023-01-30T11:56:26;98278.78;;;5.01;87.17
59106;BME280;44891;50.204;8.132;2023-01-30T12:00:36;98278.59;;;4.76;87.80
59106;BME280;44891;50.204;8.132;2023-01-30T12:04:42;98272.78;;;4.74;88.48
59106;BME280;44891;50.204;8.132;2023-01-30T12:08:44;98261.97;;;4.77;88.35
59106;BME280;44891;50.204;8.132;2023-01-30T12:12:46;98261.19;;;4.97;87.44
59106;BME280;44891;50.204;8.132;2023-01-30T12:16:52;98253.97;;;4.85;87.58
59106;BME280;44891;50.204;8.132;2023-01-30T12:20:57;98257.38;;;4.79;87.92
59106;BME280;44891;50.204;8.132;2023-01-30T12:25:00;98250.38;;;4.73;88.03
59106;BME280;44891;50.204;8.132;2023-01-30T12:29:04;98245.22;;;6.22;83.14
59106;BME280;44891;50.204;8.132;2023-01-30T12:33:15;98244.84;;;6.82;75.86
59106;BME280;44891;50.204;8.132;2023-01-30T12:37:23;98247.97;;;5.89;81.48
59106;BME280;44891;50.204;8.132;2023-01-30T12:41:30;98250.53;;;5.31;84.64
59106;BME280;44891;50.204;8.132;2023-01-30T12:45:37;98258.75;;;5.08;85.36
59106;BME280;44891;50.204;8.132;2023-01-30T12:49:46;98257.38;;;4.86;87.56
59106;BME280;44891;50.204;8.132;2023-01-30T12:53:56;98251.56;;;4.97;87.70
59106;BME280;44891;50.204;8.132;2023-01-30T12:58:01;98255.97;;;5.23;85.60
59106;BME280;44891;50.204;8.132;2023-01-30T13:02:15;98260.53;;;5.34;86.90
59106;BME280;44891;50.204;8.132;2023-01-30T13:06:27;98266.25;;;5.76;82.43
59106;BME280;44891;50.204;8.132;2023-01-30T13:10:35;98269.59;;;6.73;77.41
59106;BME280;44891;50.204;8.132;2023-01-30T13:14:40;98269.81;;;6.02;80.24
59106;BME280;44891;50.204;8.132;2023-01-30T13:18:47;98283.56;;;5.51;83.21
59106;BME280;44891;50.204;8.132;2023-01-30T13:22:53;98276.78;;;5.36;83.65
59106;BME280;44891;50.204;8.132;2023-01-30T13:26:58;98288.78;;;5.24;84.29
59106;BME280;44891;50.204;8.132;2023-01-30T13:31:03;98237.16;;;4.95;84.21
59106;BME280;44891;50.204;8.132;2023-01-30T13:35:12;98286.41;;;5.23;84.38
59106;BME280;44891;50.204;8.132;2023-01-30T13:39:17;98297.41;;;5.18;84.91
59106;BME280;44891;50.204;8.132;2023-01-30T13:43:24;98291.00;;;5.27;84.78
59106;BME280;44891;50.204;8.132;2023-01-30T13:47:34;98294.59;;;5.26;84.49
59106;BME280;44891;50.204;8.132;2023-01-30T13:51:46;98297.78;;;5.15;85.38
59106;BME280;44891;50.204;8.132;2023-01-30T13:55:50;98316.63;;;5.10;85.95
59106;BME280;44891;50.204;8.132;2023-01-30T14:08:51;98334.88;;;5.37;84.86
59106;BME280;44891;50.204;8.132;2023-01-30T14:12:54;98326.63;;;5.53;84.37
59106;BME280;44891;50.204;8.132;2023-01-30T14:16:57;98335.66;;;5.51;83.02
59106;BME280;44891;50.204;8.132;2023-01-30T14:21:11;98348.00;;;5.88;81.12
59106;BME280;44891;50.204;8.132;2023-01-30T14:25:34;98356.81;;;6.00;80.42
59106;BME280;44891;50.204;8.132;2023-01-30T14:29:49;98361.84;;;5.82;81.24
59106;BME280;44891;50.204;8.132;2023-01-30T14:33:51;98361.69;;;5.57;81.99
59106;BME280;44891;50.204;8.132;2023-01-30T14:42:24;98380.13;;;5.29;83.07
59106;BME280;44891;50.204;8.132;2023-01-30T14:46:41;98379.69;;;5.06;84.81
59106;BME280;44891;50.204;8.132;2023-01-30T14:50:44;98379.91;;;4.98;84.03
59106;BME280;44891;50.204;8.132;2023-01-30T14:54:47;98389.69;;;4.89;84.93
59106;BME280;44891;50.204;8.132;2023-01-30T14:58:51;98392.31;;;4.89;85.48
59106;BME280;44891;50.204;8.132;2023-01-30T15:02:56;98406.69;;;4.91;85.37
59106;BME280;44891;50.204;8.132;2023-01-30T15:07:01;98398.28;;;4.83;85.54
59106;BME280;44891;50.204;8.132;2023-01-30T15:11:07;98421.72;;;4.89;84.53
59106;BME280;44891;50.204;8.132;2023-01-30T15:15:16;98418.31;;;4.89;82.42
59106;BME280;44891;50.204;8.132;2023-01-30T15:19:24;98417.50;;;4.95;80.69
59106;BME280;44891;50.204;8.132;2023-01-30T15:23:43;98415.94;;;5.07;79.65
59106;BME280;44891;50.204;8.132;2023-01-30T15:27:54;98427.75;;;5.03;79.80
59106;BME280;44891;50.204;8.132;2023-01-30T15:32:13;98441.94;;;5.01;79.46
59106;BME280;44891;50.204;8.132;2023-01-30T15:36:19;98450.16;;;4.98;79.54
59106;BME280;44891;50.204;8.132;2023-01-30T15:40:24;98456.16;;;4.91;79.98
59106;BME280;44891;50.204;8.132;2023-01-30T15:48:52;98452.53;;;4.86;79.15
59106;BME280;44891;50.204;8.132;2023-01-30T15:52:59;98453.91;;;4.82;78.10
59106;BME280;44891;50.204;8.132;2023-01-30T15:57:01;98459.72;;;4.77;78.23
59106;BME280;44891;50.204;8.132;2023-01-30T16:01:04;98462.88;;;4.73;78.03
59106;BME280;44891;50.204;8.132;2023-01-30T16:05:15;98477.47;;;4.67;78.31
59106;BME280;44891;50.204;8.132;2023-01-30T16:09:18;98480.47;;;4.64;78.48
59106;BME280;44891;50.204;8.132;2023-01-30T16:13:20;98485.22;;;4.60;78.61
59106;BME280;44891;50.204;8.132;2023-01-30T16:17:23;98488.63;;;4.61;78.53
59106;BME280;44891;50.204;8.132;2023-01-30T16:21:29;98509.25;;;4.56;78.10
59106;BME280;44891;50.204;8.132;2023-01-30T16:25:32;98516.03;;;4.57;78.12
59106;BME280;44891;50.204;8.132;2023-01-30T16:29:35;98523.25;;;4.61;77.79
59106;BME280;44891;50.204;8.132;2023-01-30T16:33:48;98529.66;;;4.59;78.22
59106;BME280;44891;50.204;8.132;2023-01-30T16:37:52;98539.25;;;4.58;78.11
59106;BME280;44891;50.204;8.132;2023-01-30T16:41:54;98552.66;;;4.62;77.75
59106;BME280;44891;50.204;8.132;2023-01-30T16:46:04;98556.66;;;4.58;77.84
59106;BME280;44891;50.204;8.132;2023-01-30T16:50:24;98558.06;;;4.60;78.10
59106;BME280;44891;50.204;8.132;2023-01-30T16:54:28;98561.91;;;4.64;77.48
59106;BME280;44891;50.204;8.132;2023-01-30T16:58:31;98575.50;;;4.67;77.70
59106;BME280;44891;50.204;8.132;2023-01-30T17:02:34;98564.31;;;4.66;77.61
59106;BME280;44891;50.204;8.132;2023-01-30T17:06:38;98575.91;;;4.63;78.10
59106;BME280;44891;50.204;8.132;2023-01-30T17:10:47;98580.09;;;4.64;77.40
59106;BME280;44891;50.204;8.132;2023-01-30T17:14:55;98595.31;;;4.68;77.60
59106;BME280;44891;50.204;8.132;2023-01-30T17:19:16;98609.94;;;4.69;78.05
59106;BME280;44891;50.204;8.132;2023-01-30T17:23:18;98614.53;;;4.67;78.27
59106;BME280;44891;50.204;8.132;2023-01-30T17:27:22;98606.47;;;4.61;78.41
59106;BME280;44891;50.204;8.132;2023-01-30T17:31:25;98618.31;;;4.64;78.42
59106;BME280;44891;50.204;8.132;2023-01-30T17:35:27;98622.28;;;4.60;78.29
59106;BME280;44891;50.204;8.132;2023-01-30T17:39:28;98623.91;;;4.61;78.29
59106;BME280;44891;50.204;8.132;2023-01-30T17:43:32;98629.09;;;4.61;77.89
59106;BME280;44891;50.204;8.132;2023-01-30T17:47:33;98641.31;;;4.60;78.15
59106;BME280;44891;50.204;8.132;2023-01-30T17:51:35;98633.50;;;4.60;78.15
59106;BME280;44891;50.204;8.132;2023-01-30T17:55:37;98650.09;;;4.59;78.28
59106;BME280;44891;50.204;8.132;2023-01-30T17:59:41;98655.53;;;4.64;78.19
59106;BME280;44891;50.204;8.132;2023-01-30T18:03:42;98678.91;;;4.58;78.60
59106;BME280;44891;50.204;8.132;2023-01-30T18:07:44;98674.31;;;4.60;77.88
59106;BME280;44891;50.204;8.132;2023-01-30T18:11:47;98680.16;;;4.69;77.79
59106;BME280;44891;50.204;8.132;2023-01-30T18:15:50;98690.16;;;4.65;78.37
59106;BME280;44891;50.204;8.132;2023-01-30T18:19:55;98689.38;;;4.64;78.10
59106;BME280;44891;50.204;8.132;2023-01-30T18:23:57;98701.56;;;4.64;77.84
59106;BME280;44891;50.204;8.132;2023-01-30T18:27:58;98700.19;;;4.68;77.25
59106;BME280;44891;50.204;8.132;2023-01-30T18:32:03;98708.22;;;4.73;77.25
59106;BME280;44891;50.204;8.132;2023-01-30T18:36:06;98705.03;;;4.71;77.13
59106;BME280;44891;50.204;8.132;2023-01-30T18:40:08;98704.41;;;4.69;77.69
59106;BME280;44891;50.204;8.132;2023-01-30T18:44:13;98711.59;;;4.67;77.52
59106;BME280;44891;50.204;8.132;2023-01-30T18:48:16;98721.63;;;4.70;77.59
59106;BME280;44891;50.204;8.132;2023-01-30T18:52:18;98728.81;;;4.68;77.81
59106;BME280;44891;50.204;8.132;2023-01-30T18:56:20;98733.41;;;4.66;78.90
59106;BME280;44891;50.204;8.132;2023-01-30T19:00:22;98737.00;;;4.65;80.22
59106;BME280;44891;50.204;8.132;2023-01-30T19:04:26;98734.75;;;4.62;80.23
59106;BME280;44891;50.204;8.132;2023-01-30T19:08:27;98754.94;;;4.60;79.36
59106;BME280;44891;50.204;8.132;2023-01-30T19:12:29;98749.75;;;4.60;79.50
59106;BME280;44891;50.204;8.132;2023-01-30T19:16:49;98761.53;;;4.56;79.00
59106;BME280;44891;50.204;8.132;2023-01-30T19:20:52;98765.09;;;4.55;79.18
59106;BME280;44891;50.204;8.132;2023-01-30T19:24:54;98767.28;;;4.51;80.06
59106;BME280;44891;50.204;8.132;2023-01-30T19:28:56;98779.91;;;4.54;79.36
59106;BME280;44891;50.204;8.132;2023-01-30T19:32:58;98788.44;;;4.48;80.16
59106;BME280;44891;50.204;8.132;2023-01-30T19:37:01;98793.28;;;4.51;79.69
59106;BME280;44891;50.204;8.132;2023-01-30T19:41:03;98811.03;;;4.48;80.49
59106;BME280;44891;50.204;8.132;2023-01-30T19:45:06;98811.25;;;4.46;81.48
59106;BME280;44891;50.204;8.132;2023-01-30T19:49:09;98803.81;;;4.43;81.45
59106;BME280;44891;50.204;8.132;2023-01-30T19:53:12;98804.72;;;4.35;82.26
59106;BME280;44891;50.204;8.132;2023-01-30T19:57:14;98798.69;;;4.35;82.42
59106;BME280;44891;50.204;8.132;2023-01-30T20:01:17;98811.53;;;4.36;81.40
59106;BME280;44891;50.204;8.132;2023-01-30T20:05:19;98810.38;;;4.39;81.68
59106;BME280;44891;50.204;8.132;2023-01-30T20:09:23;98821.13;;;4.36;82.76
59106;BME280;44891;50.204;8.132;2023-01-30T20:13:24;98836.47;;;4.31;83.42
59106;BME280;44891;50.204;8.132;2023-01-30T20:17:26;98834.16;;;4.36;83.76
59106;BME280;44891;50.204;8.132;2023-01-30T20:21:29;98845.69;;;4.33;85.63
59106;BME280;44891;50.204;8.132;2023-01-30T20:25:35;98850.09;;;4.33;85.01
59106;BME280;44891;50.204;8.132;2023-01-30T20:29:36;98849.09;;;4.34;85.30
59106;BME280;44891;50.204;8.132;2023-01-30T20:33:39;98855.66;;;4.30;85.01
59106;BME280;44891;50.204;8.132;2023-01-30T20:37:40;98855.22;;;4.26;85.00
59106;BME280;44891;50.204;8.132;2023-01-30T20:41:44;98867.94;;;4.21;85.80
59106;BME280;44891;50.204;8.132;2023-01-30T20:45:46;98866.94;;;4.22;85.62
59106;BME280;44891;50.204;8.132;2023-01-30T20:49:47;98862.84;;;4.13;85.45
59106;BME280;44891;50.204;8.132;2023-01-30T20:53:50;98856.66;;;4.14;85.00
59106;BME280;44891;50.204;8.132;2023-01-30T20:57:53;98869.47;;;4.16;84.77
59106;BME280;44891;50.204;8.132;2023-01-30T21:01:55;98860.06;;;4.15;84.80
59106;BME280;44891;50.204;8.132;2023-01-30T21:05:57;98872.81;;;4.09;85.97
59106;BME280;44891;50.204;8.132;2023-01-30T21:09:59;98882.13;;;4.04;87.15
59106;BME280;44891;50.204;8.132;2023-01-30T21:14:03;98895.56;;;4.07;86.70
59106;BME280;44891;50.204;8.132;2023-01-30T21:18:04;98918.34;;;4.05;86.10
59106;BME280;44891;50.204;8.132;2023-01-30T21:22:06;98929.88;;;3.88;89.76
59106;BME280;44891;50.204;8.132;2023-01-30T21:26:10;98930.13;;;3.78;92.07
59106;BME280;44891;50.204;8.132;2023-01-30T21:30:14;98931.34;;;3.68;93.27
59106;BME280;44891;50.204;8.132;2023-01-30T21:34:16;98926.94;;;3.53;94.66
59106;BME280;44891;50.204;8.132;2023-01-30T21:38:18;98944.19;;;3.46;95.88
59106;BME280;44891;50.204;8.132;2023-01-30T21:42:37;98943.91;;;3.41;96.58
59106;BME280;44891;50.204;8.132;2023-01-30T21:46:58;98937.56;;;3.44;96.49
59106;BME280;44891;50.204;8.132;2023-01-30T21:51:07;98958.38;;;3.36;96.40
59106;BME280;44891;50.204;8.132;2023-01-30T21:55:09;98962.59;;;3.37;96.48
59106;BME280;44891;50.204;8.132;2023-01-30T21:59:11;98947.72;;;3.31;96.03
59106;BME280;44891;50.204;8.132;2023-01-30T22:03:15;98961.03;;;3.27;95.92
59106;BME280;44891;50.204;8.132;2023-01-30T22:07:16;98962.22;;;3.25;96.41
59106;BME280;44891;50.204;8.132;2023-01-30T22:11:18;98960.75;;;3.22;96.56
59106;BME280;44891;50.204;8.132;2023-01-30T22:15:21;98957.69;;;3.19;96.72
59106;BME280;44891;50.204;8.132;2023-01-30T22:19:24;98962.41;;;3.15;96.97
59106;BME280;44891;50.204;8.132;2023-01-30T22:23:28;98973.09;;;3.20;96.18